createdAt,value
2022-12-31T00:00:38.598Z,101747.06
2022-12-31T00:03:09.804Z,101744.44
2022-12-31T00:05:46.521Z,101747.06
2022-12-31T00:08:14.275Z,101744.44
2022-12-31T00:10:41.942Z,101739.13
2022-12-31T00:13:10.812Z,101743.53
2022-12-31T00:15:42.361Z,101755.06
2022-12-31T00:18:10.285Z,101747.09
2022-12-31T00:20:42.138Z,101744.44
2022-12-31T00:23:11.131Z,101737.38
2022-12-31T00:25:38.750Z,101748.84
2022-12-31T00:28:06.198Z,101730.25
2022-12-31T00:30:34.516Z,101732.03
2022-12-31T00:33:02.033Z,101724.09
2022-12-31T00:35:29.540Z,101735.63
2022-12-31T00:37:57.029Z,101748.84
2022-12-31T00:40:24.618Z,101741.78
2022-12-31T00:42:52.027Z,101735.59
2022-12-31T00:45:19.474Z,101738.25
2022-12-31T00:47:46.902Z,101732.94
2022-12-31T00:50:14.345Z,101753.28
2022-12-31T00:52:41.766Z,101752.41
2022-12-31T00:55:09.507Z,101762.13
2022-12-31T00:57:36.971Z,101755.06
2022-12-31T01:00:07.306Z,101746.19
2022-12-31T01:02:34.978Z,101732.06
2022-12-31T01:05:11.310Z,101744.47
2022-12-31T01:07:38.764Z,101749.75
2022-12-31T01:10:06.670Z,101753.28
2022-12-31T01:12:33.994Z,101758.59
2022-12-31T01:15:01.441Z,101750.63
2022-12-31T01:17:28.978Z,101765.69
2022-12-31T01:19:56.346Z,101774.53
2022-12-31T01:22:23.770Z,101782.50
2022-12-31T01:24:51.118Z,101787.78
2022-12-31T01:27:18.471Z,101784.28
2022-12-31T01:29:45.757Z,101792.22
2022-12-31T01:32:13.119Z,101781.59
2022-12-31T01:34:40.397Z,101778.94
2022-12-31T01:37:07.809Z,101786.88
2022-12-31T01:39:35.126Z,101786.00
2022-12-31T01:42:02.491Z,101794.81
2022-12-31T01:44:29.721Z,101800.13
2022-12-31T01:47:03.066Z,101795.72
2022-12-31T01:49:33.541Z,101796.59
2022-12-31T01:52:05.842Z,101799.25
2022-12-31T01:54:39.283Z,101810.75
2022-12-31T01:57:08.561Z,101817.84
2022-12-31T01:59:36.331Z,101813.44
2022-12-31T02:02:05.828Z,101809.88
2022-12-31T02:04:33.418Z,101823.13
2022-12-31T02:07:09.318Z,101831.06
2022-12-31T02:09:39.370Z,101823.16
2022-12-31T02:12:08.347Z,101840.81
2022-12-31T02:14:43.914Z,101831.06
2022-12-31T02:17:30.092Z,101834.63
2022-12-31T02:20:24.841Z,101843.47
2022-12-31T02:23:34.531Z,101842.59
2022-12-31T02:26:22.947Z,101836.41
2022-12-31T02:29:05.622Z,101845.22
2022-12-31T02:31:38.109Z,101839.06
2022-12-31T02:34:16.823Z,101854.09
2022-12-31T02:36:47.519Z,101841.72
2022-12-31T02:39:15.731Z,101854.97
2022-12-31T02:41:52.129Z,101854.09
2022-12-31T02:44:29.984Z,101834.63
2022-12-31T02:47:08.883Z,101838.16
2022-12-31T02:50:09.547Z,101845.28
2022-12-31T02:52:45.780Z,101855.00
2022-12-31T02:55:26.792Z,101857.63
2022-12-31T02:58:08.037Z,101859.41
2022-12-31T03:01:05.124Z,101855.88
2022-12-31T03:03:33.187Z,101872.66
2022-12-31T03:06:03.289Z,101870.03
2022-12-31T03:08:30.838Z,101872.69
2022-12-31T03:10:58.326Z,101869.13
2022-12-31T03:13:26.646Z,101861.13
2022-12-31T03:15:54.128Z,101877.94
2022-12-31T03:18:41.622Z,101867.31
2022-12-31T03:21:32.231Z,101859.25
2022-12-31T03:24:18.291Z,101859.25
2022-12-31T03:26:45.744Z,101867.28
2022-12-31T03:29:13.135Z,101847.84
2022-12-31T03:31:40.545Z,101849.63
2022-12-31T03:34:07.965Z,101865.56
2022-12-31T03:36:35.541Z,101849.66
2022-12-31T03:39:02.998Z,101841.69
2022-12-31T03:41:30.515Z,101847.91
2022-12-31T03:43:57.907Z,101853.22
2022-12-31T03:46:25.315Z,101852.25
2022-12-31T03:48:52.707Z,101855.84
2022-12-31T03:51:20.083Z,101849.66
2022-12-31T03:53:47.482Z,101833.75
2022-12-31T03:56:14.934Z,101835.53
2022-12-31T03:58:42.311Z,101839.09
2022-12-31T04:01:09.765Z,101855.03
2022-12-31T04:03:37.334Z,101847.88
2022-12-31T04:06:04.776Z,101860.31
2022-12-31T04:08:32.108Z,101861.19
2022-12-31T04:10:59.471Z,101864.72
2022-12-31T04:13:26.778Z,101866.50
2022-12-31T04:15:54.330Z,101862.09
2022-12-31T04:18:21.715Z,101862.94
2022-12-31T04:20:49.122Z,101859.44
2022-12-31T04:23:16.981Z,101864.72
2022-12-31T04:25:44.399Z,101870.03
2022-12-31T04:28:12.182Z,101868.25
2022-12-31T04:30:40.214Z,101860.31
2022-12-31T04:33:07.538Z,101878.00
2022-12-31T04:35:34.896Z,101866.47
2022-12-31T04:38:02.558Z,101868.31
2022-12-31T04:40:29.974Z,101878.88
2022-12-31T04:42:57.357Z,101888.59
2022-12-31T04:45:24.724Z,101898.28
2022-12-31T04:47:52.079Z,101896.53
2022-12-31T04:50:19.465Z,101902.72
2022-12-31T04:52:46.824Z,101901.84
2022-12-31T04:55:14.227Z,101916.00
2022-12-31T04:57:41.607Z,101929.28
2022-12-31T05:00:09.443Z,101939.00
2022-12-31T05:02:37.091Z,101936.31
2022-12-31T05:05:04.894Z,101938.13
2022-12-31T05:07:33.057Z,101939.88
2022-12-31T05:10:01.127Z,101949.63
2022-12-31T05:12:28.824Z,101959.31
2022-12-31T05:14:56.216Z,101954.00
2022-12-31T05:17:23.713Z,101955.75
2022-12-31T05:19:51.181Z,101970.75
2022-12-31T05:22:30.686Z,101962.81
2022-12-31T05:24:59.354Z,101941.63
2022-12-31T05:27:28.678Z,101954.81
2022-12-31T05:29:56.324Z,101966.34
2022-12-31T05:32:23.745Z,101958.41
2022-12-31T05:34:51.203Z,101979.69
2022-12-31T05:37:18.626Z,101984.94
2022-12-31T05:39:46.065Z,101978.75
2022-12-31T05:42:13.449Z,101969.91
2022-12-31T05:44:40.867Z,101980.47
2022-12-31T05:47:08.252Z,101988.38
2022-12-31T05:49:35.746Z,101987.53
2022-12-31T05:52:03.315Z,101994.63
2022-12-31T05:54:30.983Z,101993.69
2022-12-31T05:56:58.697Z,102000.81
2022-12-31T05:59:26.088Z,102006.13
2022-12-31T06:01:53.557Z,101996.34
2022-12-31T06:04:21.021Z,102000.75
2022-12-31T06:06:48.747Z,101997.22
2022-12-31T06:09:17.776Z,101995.44
2022-12-31T06:11:45.945Z,102005.22
2022-12-31T06:14:14.113Z,102004.28
2022-12-31T06:16:41.969Z,101998.06
2022-12-31T06:19:09.698Z,102007.84
2022-12-31T06:21:37.113Z,102020.25
2022-12-31T06:24:04.745Z,102016.69
2022-12-31T06:26:32.081Z,102015.78
2022-12-31T06:28:59.473Z,102026.41
2022-12-31T06:31:26.893Z,102025.50
2022-12-31T06:33:54.414Z,102031.69
2022-12-31T06:36:22.401Z,102029.03
2022-12-31T06:38:50.305Z,102033.41
2022-12-31T06:41:18.756Z,102025.44
2022-12-31T06:43:46.490Z,102043.13
2022-12-31T06:46:16.430Z,102040.53
2022-12-31T06:48:44.995Z,102051.09
2022-12-31T06:51:17.416Z,102044.13
2022-12-31T06:53:46.588Z,102044.06
2022-12-31T06:56:15.815Z,102052.03
2022-12-31T06:58:43.972Z,102071.47
2022-12-31T07:01:41.706Z,102076.75
2022-12-31T07:04:44.196Z,102071.53
2022-12-31T07:07:20.707Z,102072.38
2022-12-31T07:10:03.429Z,102081.19
2022-12-31T07:12:49.225Z,102083.03
2022-12-31T07:15:25.724Z,102069.72
2022-12-31T07:17:55.895Z,102086.59
2022-12-31T07:20:23.537Z,102087.50
2022-12-31T07:22:51.263Z,102095.41
2022-12-31T07:25:19.513Z,102108.69
2022-12-31T07:28:32.092Z,102110.56
2022-12-31T07:31:37.663Z,102117.63
2022-12-31T07:34:19.071Z,102119.28
2022-12-31T07:36:54.179Z,102112.22
2022-12-31T07:40:23.118Z,102117.59
2022-12-31T07:43:15.634Z,102120.22
2022-12-31T07:45:59.792Z,102132.66
2022-12-31T07:48:28.522Z,102134.44
2022-12-31T07:50:57.378Z,102120.34
2022-12-31T07:53:26.067Z,102115.88
2022-12-31T07:55:59.865Z,102122.09
2022-12-31T07:58:49.249Z,102145.13
2022-12-31T08:01:29.868Z,102138.91
2022-12-31T08:04:10.079Z,102144.22
2022-12-31T08:07:01.231Z,102159.31
2022-12-31T08:10:10.115Z,102148.66
2022-12-31T08:12:41.271Z,102153.09
2022-12-31T08:15:14.252Z,102153.13
2022-12-31T08:17:42.510Z,102154.84
2022-12-31T08:20:17.549Z,102169.09
2022-12-31T08:23:20.871Z,102170.00
2022-12-31T08:26:03.694Z,102173.59
2022-12-31T08:28:55.676Z,102171.81
2022-12-31T08:31:28.861Z,102177.09
2022-12-31T08:34:06.160Z,102181.56
2022-12-31T08:37:01.594Z,102182.41
2022-12-31T08:39:38.539Z,102181.56
2022-12-31T08:42:18.294Z,102176.25
2022-12-31T08:45:02.731Z,102188.66
2022-12-31T08:48:02.963Z,102195.78
2022-12-31T08:50:30.731Z,102197.50
2022-12-31T08:52:58.702Z,102201.09
2022-12-31T08:55:26.520Z,102193.97
2022-12-31T08:58:18.565Z,102196.59
2022-12-31T09:00:49.733Z,102202.84
2022-12-31T09:03:41.030Z,102211.72
2022-12-31T09:06:27.655Z,102202.88
2022-12-31T09:09:16.891Z,102217.06
2022-12-31T09:12:14.883Z,102206.41
2022-12-31T09:14:50.136Z,102213.53
2022-12-31T09:17:29.858Z,102202.06
2022-12-31T09:19:57.613Z,102203.75
2022-12-31T09:22:25.231Z,102216.22
2022-12-31T09:24:52.963Z,102208.31
2022-12-31T09:27:39.025Z,102204.78
2022-12-31T09:30:11.016Z,102215.41
2022-12-31T09:32:55.326Z,102215.41
2022-12-31T09:35:58.432Z,102219.81
2022-12-31T09:38:34.801Z,102217.16
2022-12-31T09:41:17.367Z,102212.75
2022-12-31T09:44:12.223Z,102205.66
2022-12-31T09:46:48.653Z,102215.44
2022-12-31T09:49:39.939Z,102226.09
2022-12-31T09:52:25.455Z,102228.81
2022-12-31T09:55:27.869Z,102230.56
2022-12-31T09:58:25.675Z,102234.09
2022-12-31T10:01:05.930Z,102242.03
2022-12-31T10:03:58.403Z,102232.34
2022-12-31T10:06:59.729Z,102231.47
2022-12-31T10:09:51.192Z,102235.03
2022-12-31T10:12:27.433Z,102232.34
2022-12-31T10:15:09.832Z,102232.34
2022-12-31T10:17:40.699Z,102235.94
2022-12-31T10:20:43.318Z,102236.81
2022-12-31T10:23:25.985Z,102219.13
2022-12-31T10:26:09.962Z,102228.88
2022-12-31T10:28:46.070Z,102220.94
2022-12-31T10:31:23.703Z,102220.94
2022-12-31T10:34:05.622Z,102216.50
2022-12-31T10:36:56.390Z,102213.81
2022-12-31T10:39:41.934Z,102208.53
2022-12-31T10:42:14.940Z,102204.97
2022-12-31T10:45:00.031Z,102188.13
2022-12-31T10:47:52.274Z,102190.84
2022-12-31T10:51:02.463Z,102185.50
2022-12-31T10:53:32.802Z,102194.38
2022-12-31T10:56:18.548Z,102187.28
2022-12-31T10:59:03.441Z,102190.81
2022-12-31T11:01:32.985Z,102193.50
2022-12-31T11:04:19.982Z,102189.94
2022-12-31T11:07:21.660Z,102197.03
2022-12-31T11:10:36.862Z,102197.03
2022-12-31T11:13:27.261Z,102188.19
2022-12-31T11:16:11.102Z,102198.81
2022-12-31T11:18:56.681Z,102205.94
2022-12-31T11:21:46.352Z,102212.16
2022-12-31T11:24:41.706Z,102204.16
2022-12-31T11:27:23.432Z,102195.28
2022-12-31T11:30:03.808Z,102192.63
2022-12-31T11:32:45.680Z,102199.72
2022-12-31T11:35:20.641Z,102190.00
2022-12-31T11:37:51.809Z,102195.31
2022-12-31T11:40:43.272Z,102197.09
2022-12-31T11:43:22.407Z,102195.28
2022-12-31T11:45:53.867Z,102185.56
2022-12-31T11:48:31.260Z,102199.72
2022-12-31T11:51:26.975Z,102183.78
2022-12-31T11:54:14.832Z,102195.31
2022-12-31T11:56:47.263Z,102189.97
2022-12-31T11:59:19.209Z,102173.13
2022-12-31T12:02:00.852Z,102166.03
2022-12-31T12:04:28.357Z,102166.03
2022-12-31T12:06:56.032Z,102159.81
2022-12-31T12:09:30.191Z,102148.28
2022-12-31T12:12:02.931Z,102145.63
2022-12-31T12:14:39.088Z,102139.41
2022-12-31T12:17:10.029Z,102145.59
2022-12-31T12:19:44.324Z,102160.69
2022-12-31T12:22:22.588Z,102150.91
2022-12-31T12:25:03.837Z,102145.56
2022-12-31T12:27:33.357Z,102150.91
2022-12-31T12:30:17.694Z,102147.38
2022-12-31T12:33:02.271Z,102135.81
2022-12-31T12:35:32.999Z,102135.84
2022-12-31T12:38:03.674Z,102142.91
2022-12-31T12:40:34.316Z,102142.91
2022-12-31T12:43:02.877Z,102134.00
2022-12-31T12:45:52.588Z,102142.88
2022-12-31T12:48:29.371Z,102138.44
2022-12-31T12:50:57.374Z,102148.22
2022-12-31T12:53:51.272Z,102148.19
2022-12-31T12:56:39.005Z,102146.41
2022-12-31T12:59:56.131Z,102147.31
2022-12-31T13:02:54.356Z,102148.16
2022-12-31T13:05:51.424Z,102144.63
2022-12-31T13:08:59.820Z,102147.25
2022-12-31T13:12:07.511Z,102152.59
2022-12-31T13:14:45.610Z,102129.47
2022-12-31T13:17:27.894Z,102143.63
2022-12-31T13:20:03.204Z,102139.22
2022-12-31T13:22:34.843Z,102135.66
2022-12-31T13:25:17.503Z,102149.88
2022-12-31T13:27:48.994Z,102129.47
2022-12-31T13:30:28.143Z,102137.41
2022-12-31T13:33:01.250Z,102145.41
2022-12-31T13:35:45.096Z,102154.28
2022-12-31T13:38:18.416Z,102145.44
2022-12-31T13:41:09.142Z,102130.31
2022-12-31T13:43:51.175Z,102125.00
2022-12-31T13:46:36.971Z,102132.03
2022-12-31T13:49:13.178Z,102143.63
2022-12-31T13:51:45.012Z,102145.41
2022-12-31T13:54:30.534Z,102144.53
2022-12-31T13:57:04.910Z,102150.75
2022-12-31T13:59:38.246Z,102143.66
2022-12-31T14:02:30.219Z,102152.53
2022-12-31T14:05:03.767Z,102148.09
2022-12-31T14:07:45.335Z,102148.97
2022-12-31T14:10:20.389Z,102157.84
2022-12-31T14:12:53.495Z,102157.88
2022-12-31T14:15:33.663Z,102160.53
2022-12-31T14:18:07.309Z,102171.19
2022-12-31T14:21:19.414Z,102171.19
2022-12-31T14:23:56.301Z,102176.50
2022-12-31T14:26:32.785Z,102182.75
2022-12-31T14:29:09.171Z,102191.63
2022-12-31T14:31:48.846Z,102189.84
2022-12-31T14:34:31.526Z,102195.19
2022-12-31T14:37:18.386Z,102195.22
2022-12-31T14:40:11.894Z,102208.53
2022-12-31T14:42:50.234Z,102210.31
2022-12-31T14:45:45.915Z,102204.06
2022-12-31T14:48:51.168Z,102215.63
2022-12-31T14:51:18.614Z,102213.84
2022-12-31T14:53:55.129Z,102217.41
2022-12-31T14:56:42.558Z,102212.09
2022-12-31T14:59:24.473Z,102208.56
2022-12-31T15:01:52.318Z,102205.00
2022-12-31T15:04:33.622Z,102205.00
2022-12-31T15:07:19.257Z,102208.56
2022-12-31T15:09:56.619Z,102212.13
2022-12-31T15:12:50.984Z,102212.13
2022-12-31T15:15:48.910Z,102217.44
2022-12-31T15:18:37.070Z,102211.22
2022-12-31T15:21:46.796Z,102213.88
2022-12-31T15:24:34.612Z,102214.78
2022-12-31T15:27:06.328Z,102215.66
2022-12-31T15:29:42.029Z,102217.44
2022-12-31T15:32:18.852Z,102216.56
2022-12-31T15:34:46.266Z,102211.25
2022-12-31T15:37:35.082Z,102226.31
2022-12-31T15:40:24.971Z,102229.84
2022-12-31T15:43:20.695Z,102219.19
2022-12-31T15:45:48.504Z,102231.63
2022-12-31T15:48:24.285Z,102230.75
2022-12-31T15:50:57.030Z,102238.75
2022-12-31T15:53:44.066Z,102241.41
2022-12-31T15:56:24.851Z,102244.94
2022-12-31T15:58:58.420Z,102242.31
2022-12-31T16:01:33.909Z,102252.97
2022-12-31T16:04:20.932Z,102258.28
2022-12-31T16:06:52.141Z,102252.94
2022-12-31T16:09:25.497Z,102269.81
2022-12-31T16:11:56.102Z,102260.06
2022-12-31T16:14:30.919Z,102265.38
2022-12-31T16:17:00.777Z,102263.63
2022-12-31T16:19:41.122Z,102263.59
2022-12-31T16:22:14.805Z,102266.28
2022-12-31T16:25:19.524Z,102266.28
2022-12-31T16:27:31.092Z,102276.94
2022-12-31T16:29:59.676Z,102277.81
2022-12-31T16:32:35.139Z,102279.59
2022-12-31T16:35:02.709Z,102269.81
2022-12-31T16:37:30.075Z,102274.25
2022-12-31T16:39:57.401Z,102278.69
2022-12-31T16:42:28.586Z,102283.13
2022-12-31T16:44:57.372Z,102285.78
2022-12-31T16:47:33.725Z,102284.91
2022-12-31T16:50:01.709Z,102286.69
2022-12-31T16:52:37.668Z,102292.00
2022-12-31T16:55:18.204Z,102290.22
2022-12-31T16:57:53.958Z,102293.78
2022-12-31T17:00:24.625Z,102293.78
2022-12-31T17:03:25.288Z,102296.44
2022-12-31T17:06:09.521Z,102299.13
2022-12-31T17:09:02.385Z,102302.66
2022-12-31T17:11:43.422Z,102308.00
2022-12-31T17:14:10.720Z,102315.97
2022-12-31T17:16:45.024Z,102310.63
2022-12-31T17:19:33.707Z,102309.75
2022-12-31T17:22:03.315Z,102316.84
2022-12-31T17:24:31.305Z,102308.88
2022-12-31T17:27:06.367Z,102304.44
2022-12-31T17:29:34.901Z,102312.41
2022-12-31T17:32:07.802Z,102312.44
2022-12-31T17:34:47.303Z,102319.53
2022-12-31T17:37:21.619Z,102304.44
2022-12-31T17:39:54.491Z,102307.09
2022-12-31T17:42:42.250Z,102325.75
2022-12-31T17:45:21.777Z,102323.06
2022-12-31T17:47:55.748Z,102318.63
2022-12-31T17:50:26.189Z,102331.06
2022-12-31T17:53:16.923Z,102334.59
2022-12-31T17:55:47.087Z,102334.63
2022-12-31T17:58:30.177Z,102330.16
2022-12-31T18:00:59.410Z,102323.97
2022-12-31T18:03:27.043Z,102318.63
2022-12-31T18:05:54.520Z,102309.75
2022-12-31T18:08:21.984Z,102331.94
2022-12-31T18:10:49.910Z,102330.16
2022-12-31T18:13:20.319Z,102332.84
2022-12-31T18:15:48.179Z,102321.31
2022-12-31T18:18:24.044Z,102329.31
2022-12-31T18:20:58.699Z,102329.31
2022-12-31T18:23:33.254Z,102329.28
2022-12-31T18:26:00.529Z,102331.97
2022-12-31T18:28:27.847Z,102333.75
2022-12-31T18:30:55.437Z,102321.31
2022-12-31T18:33:23.962Z,102322.19
2022-12-31T18:36:09.167Z,102332.88
2022-12-31T18:38:37.723Z,102332.81
2022-12-31T18:41:05.825Z,102323.97
2022-12-31T18:43:33.213Z,102330.16
2022-12-31T18:46:00.692Z,102331.06
2022-12-31T18:48:28.275Z,102336.41
2022-12-31T18:50:56.413Z,102332.84
2022-12-31T18:53:24.200Z,102331.06
2022-12-31T18:55:54.862Z,102334.63
2022-12-31T18:58:23.011Z,102338.19
2022-12-31T19:00:51.666Z,102333.72
2022-12-31T19:03:22.537Z,102344.38
2022-12-31T19:05:51.208Z,102338.16
2022-12-31T19:08:20.119Z,102347.03
2022-12-31T19:10:49.210Z,102344.38
2022-12-31T19:13:18.657Z,102346.16
2022-12-31T19:15:53.475Z,102354.13
2022-12-31T19:18:21.048Z,102343.47
2022-12-31T19:20:48.548Z,102352.38
2022-12-31T19:23:20.427Z,102346.16
2022-12-31T19:25:49.155Z,102358.59
2022-12-31T19:28:19.334Z,102357.69
2022-12-31T19:30:46.760Z,102356.78
2022-12-31T19:33:14.933Z,102362.13
2022-12-31T19:35:42.848Z,102359.47
2022-12-31T19:38:23.840Z,102360.34
2022-12-31T19:40:52.013Z,102368.31
2022-12-31T19:43:21.520Z,102374.56
2022-12-31T19:45:49.715Z,102383.41
2022-12-31T19:48:20.115Z,102379.88
2022-12-31T19:50:50.024Z,102378.97
2022-12-31T19:53:21.709Z,102374.50
2022-12-31T19:55:49.924Z,102381.66
2022-12-31T19:58:19.955Z,102390.53
2022-12-31T20:00:54.834Z,102383.41
2022-12-31T20:03:25.367Z,102399.38
2022-12-31T20:06:01.373Z,102403.81
2022-12-31T20:08:29.537Z,102404.69
2022-12-31T20:10:58.990Z,102415.34
2022-12-31T20:13:27.083Z,102410.03
2022-12-31T20:15:54.673Z,102415.34
2022-12-31T20:18:23.296Z,102407.34
2022-12-31T20:20:55.870Z,102409.13
2022-12-31T20:23:23.791Z,102387.81
2022-12-31T20:25:59.149Z,102386.91
2022-12-31T20:28:26.659Z,102407.31
2022-12-31T20:30:54.609Z,102401.13
2022-12-31T20:33:22.556Z,102385.13
2022-12-31T20:35:50.068Z,102390.44
2022-12-31T20:38:17.834Z,102395.75
2022-12-31T20:40:47.658Z,102392.19
2022-12-31T20:43:15.145Z,102398.44
2022-12-31T20:45:44.925Z,102387.81
2022-12-31T20:48:12.641Z,102395.75
2022-12-31T20:50:40.038Z,102400.19
2022-12-31T20:53:07.627Z,102404.63
2022-12-31T20:55:37.790Z,102405.56
2022-12-31T20:58:08.294Z,102403.78
2022-12-31T21:00:35.867Z,102394.88
2022-12-31T21:03:23.809Z,102390.41
2022-12-31T21:05:55.274Z,102399.31
2022-12-31T21:08:22.712Z,102397.53
2022-12-31T21:10:50.632Z,102401.09
2022-12-31T21:13:22.997Z,102403.78
2022-12-31T21:15:52.236Z,102400.22
2022-12-31T21:18:20.372Z,102396.69
2022-12-31T21:20:49.763Z,102403.78
2022-12-31T21:23:18.381Z,102398.47
2022-12-31T21:25:46.275Z,102402.00
2022-12-31T21:28:13.572Z,102400.19
2022-12-31T21:30:41.595Z,102388.69
2022-12-31T21:33:08.985Z,102393.13
2022-12-31T21:35:50.122Z,102385.16
2022-12-31T21:38:21.454Z,102381.59
2022-12-31T21:40:49.168Z,102386.91
2022-12-31T21:43:16.852Z,102386.88
2022-12-31T21:45:44.539Z,102391.34
2022-12-31T21:48:19.976Z,102392.28
2022-12-31T21:50:52.508Z,102391.38
2022-12-31T21:53:26.223Z,102390.50
2022-12-31T21:56:08.968Z,102390.50
2022-12-31T21:58:45.260Z,102397.59
2022-12-31T22:01:40.139Z,102398.47
2022-12-31T22:04:28.253Z,102401.16
2022-12-31T22:06:55.488Z,102395.78
2022-12-31T22:09:22.812Z,102401.16
2022-12-31T22:11:50.145Z,102395.81
2022-12-31T22:14:17.580Z,102395.81
2022-12-31T22:16:44.983Z,102402.91
2022-12-31T22:19:12.415Z,102402.88
2022-12-31T22:21:39.790Z,102396.69
2022-12-31T22:24:07.571Z,102401.16
2022-12-31T22:26:35.459Z,102408.19
2022-12-31T22:29:02.930Z,102401.13
2022-12-31T22:31:30.680Z,102393.13
2022-12-31T22:33:58.785Z,102394.03
2022-12-31T22:36:26.405Z,102386.03
2022-12-31T22:38:58.201Z,102389.59
2022-12-31T22:41:27.138Z,102391.31
2022-12-31T22:44:03.624Z,102388.63
2022-12-31T22:46:31.398Z,102389.53
2022-12-31T22:49:00.128Z,102383.31
2022-12-31T22:51:55.663Z,102380.66
2022-12-31T22:54:16.172Z,102385.09
2022-12-31T22:56:43.524Z,102378.00
2022-12-31T22:59:11.060Z,102377.13
2022-12-31T23:01:38.678Z,102385.09
2022-12-31T23:04:06.138Z,102376.22
2022-12-31T23:06:43.182Z,102383.31
2022-12-31T23:09:31.311Z,102377.13
2022-12-31T23:11:59.725Z,102370.91
2022-12-31T23:14:46.049Z,102369.09
2022-12-31T23:17:35.595Z,102365.53
2022-12-31T23:20:24.667Z,102371.75
2022-12-31T23:23:10.461Z,102364.63
2022-12-31T23:25:42.727Z,102371.75
2022-12-31T23:28:16.231Z,102369.97
2022-12-31T23:30:43.927Z,102376.16
2022-12-31T23:33:18.390Z,102363.78
2022-12-31T23:35:46.161Z,102361.13
2022-12-31T23:38:14.804Z,102366.41
2022-12-31T23:40:42.566Z,102355.75
2022-12-31T23:43:18.119Z,102354.88
2022-12-31T23:45:45.896Z,102347.78
2022-12-31T23:48:13.282Z,102351.34
2022-12-31T23:50:40.945Z,102351.31
2022-12-31T23:53:08.318Z,102353.09
2022-12-31T23:55:35.680Z,102350.44
2022-12-31T23:58:03.039Z,102346.88
